Time;durP1;ratioP1;P1;durP2;ratioP2;P2;SDS_P1;SDS_P2;PMS_P1;PMS_P2;Temp;Humidity;BMP_temperature;BMP_pressure;BME280_temperature;BME280_humidity;BME280_pressure;Samples;Min_cycle;Max_cycle;Signal;HPM_P1;HPM_P2
2023/03/15 00:00:09;;;;;;;9.30;6.40;;;;;;;9.77;92.21;98886.70;104748;1267;101346;-77
2023/03/15 00:03:15;;;;;;;3.50;2.80;;;;;;;9.54;89.69;98938.19;104927;1267;101983;-77
2023/03/15 00:06:01;;;;;;;2.30;1.80;;;;;;;9.14;87.34;98966.87;104890;1265;97912;-76
2023/03/15 00:08:46;;;;;;;2.80;1.40;;;;;;;8.64;86.32;98993.18;104708;1265;97905;-76
2023/03/15 00:11:32;;;;;;;2.70;1.50;;;;;;;8.16;86.09;99009.96;105163;1265;97866;-76
2023/03/15 00:14:18;;;;;;;2.40;1.00;;;;;;;7.79;85.98;99028.79;104868;1268;101355;-76
2023/03/15 00:17:03;;;;;;;2.90;1.40;;;;;;;7.46;86.44;99051.89;105015;1265;100172;-77
2023/03/15 00:19:49;;;;;;;2.40;1.20;;;;;;;7.27;86.82;99063.34;104894;1267;99010;-76
2023/03/15 00:22:34;;;;;;;1.60;1.00;;;;;;;7.05;86.77;99080.98;104736;1265;97999;-76
2023/03/15 00:25:20;;;;;;;2.00;1.00;;;;;;;6.77;86.77;99099.36;104764;1265;99285;-76
2023/03/15 00:28:05;;;;;;;0.80;0.60;;;;;;;6.60;87.45;99106.17;104841;1265;101481;-77
2023/03/15 00:31:06;;;;;;;1.70;0.80;;;;;;;6.42;87.88;99120.35;104908;1265;99282;-75
2023/03/15 00:33:54;;;;;;;4.90;1.90;;;;;;;6.27;87.99;99123.77;106136;1265;97908;-76
2023/03/15 00:36:42;;;;;;;1.70;0.80;;;;;;;6.12;87.88;99144.78;105218;1266;99405;-76
2023/03/15 00:39:28;;;;;;;1.90;0.90;;;;;;;5.97;87.67;99158.24;104910;1270;97908;-78
2023/03/15 00:42:14;;;;;;;2.20;0.90;;;;;;;5.81;87.28;99184.50;104780;1268;102635;-77
2023/03/15 00:45:00;;;;;;;2.00;0.90;;;;;;;5.63;87.71;99192.84;104668;1268;100360;-76
2023/03/15 00:47:53;;;;;;;1.20;0.90;;;;;;;5.51;87.91;99203.11;104792;1265;97895;-76
2023/03/15 00:50:39;;;;;;;1.90;0.90;;;;;;;5.40;88.11;99207.15;104639;1267;98123;-78
2023/03/15 00:53:25;;;;;;;2.10;0.80;;;;;;;5.31;88.26;99229.18;104730;1268;99086;-77
2023/03/15 00:56:16;;;;;;;1.50;0.80;;;;;;;5.22;88.64;99243.46;104997;1265;101373;-76
2023/03/15 00:59:01;;;;;;;0.70;0.60;;;;;;;5.20;88.94;99253.31;104817;1264;101523;-76
2023/03/15 01:01:48;;;;;;;1.50;0.80;;;;;;;5.16;88.90;99261.83;106236;1267;99809;-76
2023/03/15 01:04:34;;;;;;;1.70;0.80;;;;;;;5.07;88.68;99266.00;104761;1270;98005;-77
2023/03/15 01:07:20;;;;;;;1.40;0.80;;;;;;;4.95;88.76;99271.73;104700;1271;98419;-78
2023/03/15 01:10:07;;;;;;;1.10;0.70;;;;;;;4.89;89.17;99278.57;104696;1266;102149;-76
2023/03/15 01:12:52;;;;;;;1.90;0.70;;;;;;;4.82;89.39;99288.76;104744;1265;99131;-75
2023/03/15 01:15:38;;;;;;;2.90;0.70;;;;;;;4.79;89.94;99299.40;104800;1265;98019;-76
2023/03/15 01:18:24;;;;;;;1.90;0.80;;;;;;;4.76;90.12;99311.64;104740;1268;98668;-77
2023/03/15 01:21:12;;;;;;;3.20;0.80;;;;;;;4.75;90.31;99316.46;104747;1268;98389;-77
2023/03/15 01:23:57;;;;;;;1.40;0.70;;;;;;;4.77;90.79;99321.02;104934;1268;102599;-76
2023/03/15 01:26:43;;;;;;;3.30;0.90;;;;;;;4.78;90.50;99341.62;104961;1269;100335;-75
2023/03/15 01:29:29;;;;;;;2.50;0.80;;;;;;;4.71;90.31;99359.75;104756;1271;99043;-75
2023/03/15 01:32:15;;;;;;;3.00;0.70;;;;;;;4.66;90.40;99370.87;104829;1265;98058;-78
2023/03/15 01:35:01;;;;;;;2.20;0.80;;;;;;;4.61;90.16;99373.46;104830;1268;97914;-77
2023/03/15 01:37:51;;;;;;;3.10;0.70;;;;;;;4.56;89.76;99380.60;104887;1267;103020;-77
2023/03/15 01:40:43;;;;;;;5.30;1.00;;;;;;;4.47;89.28;99388.19;104992;1267;100389;-76
2023/03/15 01:43:31;;;;;;;5.70;1.10;;;;;;;4.39;88.81;99397.27;104964;1267;100192;-76
2023/03/15 01:46:28;;;;;;;1.50;0.70;;;;;;;4.32;88.71;99409.73;104819;1268;98000;-78
2023/03/15 01:49:27;;;;;;;3.90;0.70;;;;;;;4.26;88.34;99423.30;104693;1270;98509;-78
2023/03/15 01:52:18;;;;;;;5.50;1.30;;;;;;;4.21;87.94;99434.00;104683;1270;101915;-78
2023/03/15 01:55:15;;;;;;;4.20;0.80;;;;;;;4.18;87.83;99445.84;104823;1265;99134;-78
2023/03/15 01:58:14;;;;;;;3.50;1.40;;;;;;;4.18;88.28;99447.40;104784;1265;99167;-77
2023/03/15 02:01:02;;;;;;;5.90;1.00;;;;;;;4.23;88.57;99447.73;104725;1265;97910;-78
2023/03/15 02:03:56;;;;;;;3.20;1.70;;;;;;;4.24;88.69;99454.27;104734;1271;98420;-78
2023/03/15 02:06:49;;;;;;;1.20;0.70;;;;;;;4.25;88.44;99470.45;104922;1267;101496;-77
2023/03/15 02:09:45;;;;;;;3.00;1.30;;;;;;;4.26;88.39;99471.27;104797;1267;99224;-76
2023/03/15 02:12:36;;;;;;;3.40;1.10;;;;;;;4.26;88.22;99472.86;104844;1265;98008;-76
2023/03/15 02:15:21;;;;;;;4.10;1.00;;;;;;;4.23;88.06;99480.08;104887;1270;97996;-77
2023/03/15 02:18:07;;;;;;;2.80;0.90;;;;;;;4.21;87.98;99485.48;104841;1265;98406;-77
2023/03/15 02:20:59;;;;;;;4.70;1.30;;;;;;;4.22;88.18;99499.09;104671;1270;101361;-75
2023/03/15 02:23:52;;;;;;;5.80;1.60;;;;;;;4.27;88.38;99511.02;104870;1269;100510;-76
2023/03/15 02:26:47;;;;;;;9.60;1.70;;;;;;;4.26;88.05;99509.38;105049;1265;98833;-76
2023/03/15 02:29:33;;;;;;;2.90;1.20;;;;;;;4.26;87.96;99512.25;104737;1265;98605;-76
2023/03/15 02:32:18;;;;;;;4.10;1.80;;;;;;;4.26;88.07;99519.08;104777;1267;98494;-76
2023/03/15 02:35:04;;;;;;;4.10;1.50;;;;;;;4.30;88.21;99528.78;104683;1265;103260;-77
2023/03/15 02:37:50;;;;;;;3.50;1.60;;;;;;;4.32;88.01;99544.73;104930;1265;99137;-77
2023/03/15 02:40:35;;;;;;;5.70;1.60;;;;;;;4.36;88.31;99552.96;105132;1265;98634;-77
2023/03/15 02:43:27;;;;;;;3.30;1.40;;;;;;;4.39;88.21;99564.95;104769;1270;97998;-78
2023/03/15 02:46:13;;;;;;;3.40;1.90;;;;;;;4.42;88.22;99575.94;104770;1268;98206;-77
2023/03/15 02:49:00;;;;;;;2.30;1.70;;;;;;;4.43;88.11;99580.41;105001;1270;101334;-75
2023/03/15 02:51:46;;;;;;;2.20;1.50;;;;;;;4.43;88.16;99583.23;104974;1269;101728;-77
2023/03/15 02:54:33;;;;;;;1.50;1.30;;;;;;;4.44;88.09;99585.77;104798;1269;98901;-76
2023/03/15 02:57:19;;;;;;;5.30;1.60;;;;;;;4.45;87.97;99594.66;104768;1284;98139;-75
2023/03/15 03:00:13;;;;;;;5.30;1.80;;;;;;;4.44;88.08;99602.05;104794;1271;99645;-77
2023/03/15 03:02:58;;;;;;;5.90;2.10;;;;;;;4.43;87.97;99610.96;104797;1265;101459;-77
2023/03/15 03:05:44;;;;;;;7.40;2.30;;;;;;;4.44;88.15;99620.44;104819;1275;99817;-75
2023/03/15 03:08:30;;;;;;;4.90;1.80;;;;;;;4.47;88.07;99625.33;104499;1264;324503;-78
2023/03/15 03:11:16;;;;;;;5.30;2.30;;;;;;;4.47;87.75;99625.98;104812;1269;97974;-77
2023/03/15 03:14:01;;;;;;;3.90;2.30;;;;;;;4.45;87.63;99624.73;104819;1270;98132;-76
2023/03/15 03:16:48;;;;;;;6.40;2.20;;;;;;;4.46;87.58;99630.40;104751;1271;101369;-76
2023/03/15 03:19:33;;;;;;;4.30;2.30;;;;;;;4.46;87.52;99644.10;104776;1268;100171;-78
2023/03/15 03:22:19;;;;;;;9.80;2.60;;;;;;;4.46;87.89;99658.69;104775;1268;99184;-77
2023/03/15 03:25:09;;;;;;;8.40;3.00;;;;;;;4.49;88.26;99659.47;104708;1263;98027;-75
2023/03/15 03:27:56;;;;;;;3.70;2.70;;;;;;;4.49;88.01;99658.98;105507;1267;99817;-76
2023/03/15 03:30:42;;;;;;;7.90;2.90;;;;;;;4.45;87.88;99664.33;104889;1265;102036;-75
2023/03/15 03:33:28;;;;;;;4.90;3.30;;;;;;;4.42;87.75;99666.84;104947;1265;100073;-76
2023/03/15 03:36:13;;;;;;;9.20;2.90;;;;;;;4.42;87.78;99671.43;104868;1269;99027;-78
2023/03/15 03:39:00;;;;;;;7.90;3.20;;;;;;;4.42;87.68;99682.52;104695;1271;98863;-76
2023/03/15 03:41:46;;;;;;;8.90;5.50;;;;;;;4.42;87.85;99684.15;104757;1265;98561;-75
2023/03/15 03:44:31;;;;;;;8.90;3.80;;;;;;;4.42;87.98;99687.00;104884;1271;101593;-77
2023/03/15 03:47:17;;;;;;;11.70;5.50;;;;;;;4.43;88.01;99695.71;104699;1270;99749;-75
2023/03/15 03:50:04;;;;;;;7.50;4.60;;;;;;;4.41;87.85;99691.11;104760;1270;100037;-76
2023/03/15 03:52:50;;;;;;;9.60;4.90;;;;;;;4.40;87.70;99691.97;104647;1268;98511;-77
2023/03/15 03:55:41;;;;;;;11.70;5.90;;;;;;;4.41;87.88;99694.33;104797;1270;98847;-76
2023/03/15 03:58:27;;;;;;;9.60;5.70;;;;;;;4.42;87.82;99694.39;104700;1270;101399;-76
2023/03/15 04:01:17;;;;;;;9.00;5.00;;;;;;;4.41;87.79;99699.59;104748;1268;100390;-76
2023/03/15 04:04:12;;;;;;;15.00;6.80;;;;;;;4.40;87.70;99703.09;104815;1264;98625;-77
2023/03/15 04:06:58;;;;;;;8.90;5.10;;;;;;;4.40;87.38;99710.99;104777;1268;98014;-78
2023/03/15 04:09:49;;;;;;;12.20;5.80;;;;;;;4.40;87.31;99722.36;104713;1268;97975;-77
2023/03/15 04:12:37;;;;;;;10.40;5.30;;;;;;;4.40;87.15;99729.46;104829;1269;102606;-76
2023/03/15 04:15:23;;;;;;;9.40;4.90;;;;;;;4.37;86.89;99736.48;104896;1268;99219;-75
2023/03/15 04:18:09;;;;;;;8.50;4.30;;;;;;;4.34;86.74;99742.63;104877;1278;98372;-77
2023/03/15 04:20:59;;;;;;;10.10;4.30;;;;;;;4.31;86.30;99744.52;104894;1263;98008;-75
2023/03/15 04:23:45;;;;;;;10.20;4.20;;;;;;;4.25;85.50;99750.76;105003;1264;98617;-78
2023/03/15 04:26:41;;;;;;;13.00;5.60;;;;;;;4.19;85.32;99757.19;104910;1267;102682;-75
2023/03/15 04:29:42;;;;;;;8.30;4.90;;;;;;;4.18;85.17;99764.70;104806;1270;99105;-76
2023/03/15 04:32:57;;;;;;;10.40;5.50;;;;;;;4.19;85.11;99773.25;104707;1268;98098;-77
2023/03/15 04:36:02;;;;;;;13.40;4.90;;;;;;;4.21;85.32;99778.77;104654;1267;99151;-78
2023/03/15 04:39:13;;;;;;;11.80;4.90;;;;;;;4.22;85.58;99783.22;104616;1276;98619;-76
2023/03/15 04:42:18;;;;;;;10.60;5.20;;;;;;;4.23;85.60;99787.04;104707;1269;102080;-76
2023/03/15 04:45:23;;;;;;;11.20;5.20;;;;;;;4.22;85.60;99785.17;104716;1264;99109;-77
2023/03/15 04:48:29;;;;;;;13.80;5.40;;;;;;;4.20;85.45;99784.48;104786;1278;98015;-77
2023/03/15 04:51:44;;;;;;;15.50;5.40;;;;;;;4.18;85.38;99793.02;104806;1264;97913;-76
2023/03/15 04:54:39;;;;;;;15.70;6.20;;;;;;;4.18;85.36;99798.47;104697;1269;100208;-77
2023/03/15 04:57:43;;;;;;;11.60;4.90;;;;;;;4.18;85.23;99806.41;104732;1271;102173;-77
2023/03/15 05:00:47;;;;;;;16.80;5.40;;;;;;;4.17;84.74;99810.27;104739;1270;99111;-76
2023/03/15 05:04:02;;;;;;;11.10;5.50;;;;;;;4.15;84.55;99814.52;104689;1269;99042;-77
2023/03/15 05:07:26;;;;;;;9.90;5.10;;;;;;;4.09;83.42;99819.55;104706;1274;98209;-76
2023/03/15 05:10:24;;;;;;;11.30;5.30;;;;;;;4.03;83.28;99821.54;104624;1273;99891;-76
2023/03/15 05:13:26;;;;;;;13.50;5.60;;;;;;;3.98;83.13;99827.35;104768;1270;101388;-76
2023/03/15 05:16:28;;;;;;;13.20;4.90;;;;;;;3.96;83.15;99835.39;104829;1270;99442;-77
2023/03/15 05:19:27;;;;;;;9.70;4.90;;;;;;;3.96;82.98;99842.20;104691;1264;97942;-76
2023/03/15 05:22:37;;;;;;;10.70;5.50;;;;;;;3.90;82.12;99839.14;104600;1267;99234;-78
2023/03/15 05:25:28;;;;;;;14.30;5.80;;;;;;;3.83;81.80;99844.63;104718;1269;97775;-76
2023/03/15 05:28:44;;;;;;;13.20;5.60;;;;;;;3.81;81.85;99850.38;104702;1265;102196;-77
2023/03/15 05:31:51;;;;;;;9.40;4.70;;;;;;;3.78;81.93;99861.60;104681;1264;100347;-78
2023/03/15 05:35:05;;;;;;;9.20;4.50;;;;;;;3.76;82.06;99865.33;104707;1278;98173;-77
2023/03/15 05:38:00;;;;;;;13.90;5.20;;;;;;;3.79;82.28;99874.02;104606;1270;98439;-78
2023/03/15 05:41:00;;;;;;;12.80;5.70;;;;;;;3.83;82.42;99883.70;104853;1270;98424;-77
2023/03/15 05:44:05;;;;;;;16.00;5.30;;;;;;;3.88;82.44;99890.27;104831;1271;102390;-78
2023/03/15 05:47:14;;;;;;;12.10;5.70;;;;;;;3.92;82.51;99890.88;104863;1267;100395;-76
2023/03/15 05:50:29;;;;;;;14.00;6.10;;;;;;;3.91;82.03;99891.36;104518;1264;98813;-77
2023/03/15 05:53:29;;;;;;;15.30;6.80;;;;;;;3.88;81.80;99893.20;104742;1276;97881;-78
2023/03/15 05:56:43;;;;;;;12.30;6.00;;;;;;;3.80;81.58;99893.71;105131;1268;98504;-76
2023/03/15 05:59:52;;;;;;;10.30;6.10;;;;;;;3.73;81.28;99896.70;104825;1270;102642;-76
2023/03/15 06:03:07;;;;;;;13.90;5.90;;;;;;;3.68;81.07;99906.63;104670;1270;100368;-76
2023/03/15 06:06:05;;;;;;;16.90;6.80;;;;;;;3.64;81.48;99915.84;104776;1264;99017;-78
2023/03/15 06:08:55;;;;;;;15.50;6.00;;;;;;;3.65;81.76;99919.35;104810;1267;98689;-77
2023/03/15 06:11:41;;;;;;;17.40;6.70;;;;;;;3.64;81.69;99920.34;104937;1264;98421;-77
2023/03/15 06:14:29;;;;;;;13.00;6.50;;;;;;;3.63;81.90;99920.11;104801;1270;101395;-75
2023/03/15 06:17:19;;;;;;;12.80;6.20;;;;;;;3.65;81.88;99917.23;104973;1267;100701;-76
2023/03/15 06:20:06;;;;;;;12.90;7.10;;;;;;;3.66;82.04;99919.23;104752;1267;99291;-75
2023/03/15 06:22:52;;;;;;;10.30;6.80;;;;;;;3.62;81.90;99926.34;104779;1267;97967;-75
2023/03/15 06:25:58;;;;;;;13.00;5.90;;;;;;;3.60;82.12;99934.52;104907;1269;98504;-77
2023/03/15 06:28:44;;;;;;;15.50;5.30;;;;;;;3.58;82.22;99942.82;104910;1267;103066;-76
2023/03/15 06:31:29;;;;;;;15.40;5.80;;;;;;;3.58;82.20;99947.23;105357;1264;99648;-75
2023/03/15 06:34:20;;;;;;;14.90;6.40;;;;;;;3.59;82.51;99958.23;104929;1264;98041;-77
2023/03/15 06:37:06;;;;;;;14.90;5.50;;;;;;;3.64;82.59;99969.77;104716;1270;97987;-77
2023/03/15 06:39:53;;;;;;;15.80;5.80;;;;;;;3.68;82.67;99977.27;104810;1264;98504;-76
2023/03/15 06:42:40;;;;;;;12.60;7.20;;;;;;;3.75;82.80;99987.47;104712;1269;102567;-77
2023/03/15 06:45:27;;;;;;;13.10;5.20;;;;;;;3.81;82.80;99996.92;104822;1264;100358;-77
2023/03/15 06:48:13;;;;;;;9.70;5.00;;;;;;;3.83;82.51;100006.38;104947;1267;97978;-76
2023/03/15 06:50:59;;;;;;;15.60;5.70;;;;;;;3.82;82.28;100012.04;104820;1264;98094;-76
2023/03/15 06:53:45;;;;;;;10.60;4.60;;;;;;;3.77;82.04;100018.77;104776;1270;97887;-76
2023/03/15 06:56:34;;;;;;;10.70;4.40;;;;;;;3.74;82.08;100028.91;104795;1265;101306;-76
2023/03/15 06:59:19;;;;;;;11.80;5.30;;;;;;;3.73;82.01;100030.95;104891;1267;101121;-76
2023/03/15 07:02:06;;;;;;;10.90;4.80;;;;;;;3.72;81.80;100030.20;104846;1265;98642;-77
2023/03/15 07:04:51;;;;;;;12.00;4.50;;;;;;;3.73;81.73;100031.45;104970;1271;97983;-76
2023/03/15 07:07:37;;;;;;;17.10;4.60;;;;;;;3.75;81.96;100033.88;104789;1264;97975;-76
2023/03/15 07:10:22;;;;;;;10.50;5.40;;;;;;;3.80;81.87;100043.25;104833;1264;102742;-77
2023/03/15 07:13:08;;;;;;;14.30;4.70;;;;;;;3.83;82.06;100052.38;104909;1265;99083;-76
2023/03/15 07:15:55;;;;;;;12.50;4.80;;;;;;;3.90;82.21;100058.36;104856;1270;98500;-78
2023/03/15 07:18:40;;;;;;;13.00;4.30;;;;;;;3.94;81.58;100061.80;104683;1264;98009;-75
2023/03/15 07:21:26;;;;;;;11.60;4.90;;;;;;;3.93;81.51;100068.09;104837;1265;97986;-75
2023/03/15 07:24:12;;;;;;;14.90;5.40;;;;;;;3.95;81.55;100066.71;104906;1265;101340;-77
2023/03/15 07:26:57;;;;;;;10.20;5.00;;;;;;;4.00;81.90;100068.06;104932;1268;100503;-78
2023/03/15 07:29:43;;;;;;;11.70;5.00;;;;;;;4.02;81.48;100066.29;104799;1270;98071;-75
2023/03/15 07:32:30;;;;;;;18.50;5.40;;;;;;;4.03;81.39;100068.48;104769;1267;98079;-76
2023/03/15 07:35:17;;;;;;;14.00;5.00;;;;;;;4.06;81.12;100068.55;104902;1268;99244;-77
2023/03/15 07:38:02;;;;;;;11.20;4.10;;;;;;;4.05;80.75;100068.13;104840;1264;101401;-76
2023/03/15 07:40:48;;;;;;;11.50;4.40;;;;;;;4.04;80.29;100067.70;104946;1270;100347;-77
2023/03/15 07:43:34;;;;;;;9.10;4.30;;;;;;;4.04;79.84;100066.83;104935;1265;98000;-77
2023/03/15 07:46:37;;;;;;;11.10;4.90;;;;;;;4.03;79.48;100065.49;104938;1264;98657;-78
2023/03/15 07:49:23;;;;;;;15.50;4.80;;;;;;;4.06;79.64;100075.92;104848;1267;99820;-78
2023/03/15 07:52:09;;;;;;;16.10;5.70;;;;;;;4.09;79.43;100077.89;104960;1270;102541;-78
2023/03/15 07:54:54;;;;;;;11.90;4.40;;;;;;;4.15;79.80;100088.63;104854;1265;101296;-76
2023/03/15 07:57:40;;;;;;;9.40;4.20;;;;;;;4.21;79.45;100096.99;104997;1264;97987;-77
2023/03/15 08:00:26;;;;;;;12.70;4.60;;;;;;;4.21;78.93;100108.30;105042;1267;98000;-77
2023/03/15 08:03:12;;;;;;;9.00;5.60;;;;;;;4.21;78.80;100116.91;104795;1269;98583;-77
2023/03/15 08:05:57;;;;;;;10.30;5.30;;;;;;;4.27;79.27;100130.27;104846;1267;101351;-80
2023/03/15 08:08:43;;;;;;;10.20;4.00;;;;;;;4.38;79.69;100140.27;104736;1267;99103;-76
2023/03/15 08:11:28;;;;;;;9.70;4.50;;;;;;;4.42;78.95;100145.25;104920;1269;99169;-79
2023/03/15 08:14:14;;;;;;;8.10;4.80;;;;;;;4.40;78.14;100154.76;105227;1270;97881;-77
2023/03/15 08:16:59;;;;;;;13.40;4.90;;;;;;;4.37;78.04;100159.41;105144;1268;97986;-76
2023/03/15 08:19:45;;;;;;;11.10;4.80;;;;;;;4.37;77.73;100169.69;105051;1270;101323;-76
2023/03/15 08:22:31;;;;;;;8.40;4.60;;;;;;;4.38;77.88;100176.02;105074;1263;100394;-79
2023/03/15 08:25:19;;;;;;;12.20;4.10;;;;;;;4.39;77.51;100181.39;105434;1264;98500;-78
2023/03/15 08:28:05;;;;;;;10.60;5.30;;;;;;;4.43;77.39;100186.02;105203;1269;98367;-79
2023/03/15 08:30:50;;;;;;;11.20;5.00;;;;;;;4.47;77.65;100186.45;105336;1268;98391;-78
2023/03/15 08:33:36;;;;;;;10.10;4.80;;;;;;;4.54;77.64;100187.21;105117;1267;101323;-80
2023/03/15 08:36:22;;;;;;;8.70;4.40;;;;;;;4.59;77.22;100192.91;105102;1267;99089;-78
2023/03/15 08:39:08;;;;;;;13.50;4.80;;;;;;;4.60;76.73;100191.91;105010;1264;97908;-78
2023/03/15 08:41:53;;;;;;;10.10;5.10;;;;;;;4.57;76.16;100197.11;104847;1267;98000;-78
2023/03/15 08:44:39;;;;;;;9.10;5.40;;;;;;;4.53;76.18;100197.15;104951;1264;98515;-78
2023/03/15 08:47:25;;;;;;;10.60;4.80;;;;;;;4.53;76.36;100195.23;104790;1264;101387;-78
2023/03/15 08:50:13;;;;;;;10.50;4.80;;;;;;;4.58;76.47;100195.11;104753;1267;99089;-78
2023/03/15 08:52:59;;;;;;;13.30;5.10;;;;;;;4.70;76.90;100204.04;104815;1267;99174;-77
2023/03/15 08:55:44;;;;;;;11.80;4.60;;;;;;;4.83;76.77;100204.16;105146;1264;98067;-78
2023/03/15 08:58:30;;;;;;;13.30;4.40;;;;;;;4.84;75.86;100208.11;105074;1264;97980;-79
2023/03/15 09:01:15;;;;;;;7.90;4.10;;;;;;;4.91;75.85;100214.73;106923;1260;102981;-79
2023/03/15 09:04:01;;;;;;;11.50;4.20;;;;;;;5.03;76.46;100218.33;105222;1266;99119;-79
2023/03/15 09:06:47;;;;;;;8.00;5.00;;;;;;;5.16;76.36;100218.15;105197;1262;98381;-78
2023/03/15 09:09:32;;;;;;;12.70;4.50;;;;;;;5.21;75.37;100218.62;105165;1264;98068;-77
2023/03/15 09:12:20;;;;;;;15.20;4.90;;;;;;;5.27;75.48;100222.86;105141;1263;98966;-79
2023/03/15 09:15:06;;;;;;;16.30;4.30;;;;;;;5.34;75.31;100224.81;105135;1263;102478;-77
2023/03/15 09:17:52;;;;;;;7.60;4.30;;;;;;;5.44;74.70;100226.79;105248;1264;99088;-78
2023/03/15 09:20:38;;;;;;;13.10;4.40;;;;;;;5.50;74.13;100230.12;105151;1264;98061;-77
2023/03/15 09:23:24;;;;;;;8.80;4.20;;;;;;;5.54;74.46;100234.98;105235;1266;97882;-79
2023/03/15 09:26:09;;;;;;;35.20;17.00;;;;;;;5.59;74.10;100240.80;105261;1264;97887;-78
2023/03/15 09:28:55;;;;;;;14.90;6.40;;;;;;;5.55;74.09;100246.17;105197;1267;102622;-77
2023/03/15 09:31:40;;;;;;;8.90;5.30;;;;;;;5.56;74.23;100245.01;105228;1263;99995;-79
2023/03/15 09:34:26;;;;;;;15.80;4.70;;;;;;;5.61;74.39;100246.25;105265;1265;97977;-77
2023/03/15 09:37:12;;;;;;;8.90;4.40;;;;;;;5.66;74.53;100245.22;105194;1264;97929;-78
2023/03/15 09:39:58;;;;;;;7.50;4.80;;;;;;;5.69;74.33;100242.57;105216;1264;98422;-78
2023/03/15 09:42:44;;;;;;;10.30;4.60;;;;;;;5.74;74.32;100242.19;105168;1267;102042;-79
2023/03/15 09:46:22;;;;;;;21.20;8.00;;;;;;;5.81;73.94;100243.52;105188;1266;99545;-78
2023/03/15 09:49:17;;;;;;;10.30;4.70;;;;;;;5.85;73.70;100242.83;105298;1264;97880;-78
2023/03/15 09:52:18;;;;;;;37.00;17.00;;;;;;;5.86;74.16;100241.82;105256;1267;98071;-79
2023/03/15 09:55:11;;;;;;;28.80;12.00;;;;;;;5.89;74.17;100244.65;105307;1264;98448;-79
2023/03/15 09:58:25;;;;;;;42.90;15.90;;;;;;;5.91;74.09;100244.02;105235;1268;101400;-79
2023/03/15 10:01:12;;;;;;;13.70;6.40;;;;;;;5.95;74.24;100245.75;105347;1263;99926;-78
2023/03/15 10:04:09;;;;;;;17.20;6.30;;;;;;;5.98;74.02;100248.42;105119;1267;99002;-78
2023/03/15 10:06:57;;;;;;;10.30;4.70;;;;;;;6.01;74.02;100246.45;105057;1267;98024;-78
2023/03/15 10:09:44;;;;;;;10.20;4.60;;;;;;;6.06;73.80;100243.82;105061;1267;98463;-78
2023/03/15 10:12:40;;;;;;;15.00;6.40;;;;;;;6.08;73.49;100242.56;105129;1264;101363;-77
2023/03/15 10:15:43;;;;;;;7.80;3.60;;;;;;;6.11;73.46;100243.56;105119;1264;99270;-77
2023/03/15 10:19:01;;;;;;;11.20;4.00;;;;;;;6.16;73.12;100239.04;105076;1267;99120;-78
2023/03/15 10:21:55;;;;;;;18.90;9.40;;;;;;;6.18;72.67;100240.50;105279;1262;98489;-80
2023/03/15 10:25:05;;;;;;;32.00;15.80;;;;;;;6.22;72.68;100250.60;105146;1264;98521;-77
2023/03/15 10:27:56;;;;;;;17.10;6.50;;;;;;;6.20;72.36;100255.27;105195;1264;102740;-77
2023/03/15 10:30:47;;;;;;;17.30;5.80;;;;;;;6.25;72.86;100250.60;105088;1264;99791;-80
2023/03/15 10:33:36;;;;;;;13.20;4.70;;;;;;;6.36;72.88;100257.89;107958;1264;97716;-79
2023/03/15 10:36:23;;;;;;;15.00;4.30;;;;;;;6.40;72.08;100256.37;107967;1262;95308;-79
2023/03/15 10:39:10;;;;;;;11.90;4.40;;;;;;;6.38;71.34;100257.20;106735;1264;98468;-80
2023/03/15 10:41:56;;;;;;;13.30;5.70;;;;;;;6.42;72.07;100259.92;105271;1265;101353;-80
2023/03/15 10:44:41;;;;;;;12.10;3.80;;;;;;;6.54;72.28;100267.98;105092;1263;99201;-77
2023/03/15 10:47:27;;;;;;;11.00;3.50;;;;;;;6.55;71.31;100269.26;104982;1267;97991;-77
2023/03/15 10:50:37;;;;;;;10.40;3.40;;;;;;;6.49;70.51;100264.04;105076;1267;97999;-79
2023/03/15 10:53:24;;;;;;;12.90;3.80;;;;;;;6.43;70.70;100261.03;105744;1267;98516;-79
2023/03/15 10:56:18;;;;;;;6.80;3.40;;;;;;;6.40;70.59;100263.65;105107;1264;102626;-80
2023/03/15 10:59:15;;;;;;;9.10;3.70;;;;;;;6.33;69.65;100259.87;105101;1263;99116;-78
2023/03/15 11:02:10;;;;;;;11.10;3.80;;;;;;;6.31;69.91;100264.89;105865;1267;99052;-79
2023/03/15 11:05:09;;;;;;;10.30;5.70;;;;;;;6.31;70.56;100266.12;105188;1262;98073;-80
2023/03/15 11:07:57;;;;;;;44.70;18.20;;;;;;;6.37;70.88;100262.76;105324;1267;97793;-79
2023/03/15 11:10:45;;;;;;;13.40;6.20;;;;;;;6.42;70.77;100258.64;105302;1267;101590;-80
2023/03/15 11:13:32;;;;;;;14.40;5.10;;;;;;;6.52;71.34;100260.38;105174;1262;99101;-80
2023/03/15 11:16:20;;;;;;;13.90;4.20;;;;;;;6.63;71.17;100263.24;105321;1267;97952;-81
2023/03/15 11:19:18;;;;;;;11.50;4.10;;;;;;;6.70;70.66;100261.51;105284;1266;97996;-79
2023/03/15 11:22:04;;;;;;;11.40;3.80;;;;;;;6.69;69.44;100261.01;105152;1262;98000;-78
2023/03/15 11:24:53;;;;;;;8.30;3.80;;;;;;;6.61;68.44;100264.68;105065;1266;102134;-78
2023/03/15 11:27:42;;;;;;;12.60;4.00;;;;;;;6.55;68.31;100261.10;105119;1262;99854;-77
2023/03/15 11:30:30;;;;;;;9.90;4.30;;;;;;;6.55;68.65;100258.14;105449;1262;98382;-78
2023/03/15 11:33:32;;;;;;;13.10;4.40;;;;;;;6.60;68.91;100258.27;105136;1267;97983;-80
2023/03/15 11:36:22;;;;;;;8.40;4.10;;;;;;;6.68;69.48;100260.23;105180;1266;97127;-81
2023/03/15 11:39:14;;;;;;;7.20;3.70;;;;;;;6.73;69.10;100250.71;105091;1262;101361;-80
2023/03/15 11:42:09;;;;;;;11.80;5.30;;;;;;;6.79;69.67;100246.34;105644;1267;99133;-78
2023/03/15 11:45:00;;;;;;;11.20;4.80;;;;;;;6.90;69.72;100245.30;105136;1267;99324;-78
2023/03/15 11:47:55;;;;;;;10.80;3.60;;;;;;;6.96;68.80;100250.05;105227;1265;97974;-79
2023/03/15 11:50:40;;;;;;;14.10;4.50;;;;;;;6.98;68.38;100248.56;105281;1266;99692;-81
2023/03/15 11:53:33;;;;;;;11.70;5.50;;;;;;;6.96;68.28;100251.84;105108;1262;102613;-78
2023/03/15 11:56:43;;;;;;;15.10;3.40;;;;;;;6.90;67.90;100255.86;105098;1266;99090;-78
2023/03/15 11:59:31;;;;;;;9.80;4.20;;;;;;;6.78;67.40;100261.15;105097;1267;98564;-79
2023/03/15 12:02:16;;;;;;;14.30;3.50;;;;;;;6.70;67.07;100260.77;105144;1266;99260;-76
2023/03/15 12:05:05;;;;;;;12.60;3.10;;;;;;;6.64;66.28;100261.98;104813;1262;97968;-77
2023/03/15 12:08:14;;;;;;;11.60;3.70;;;;;;;6.56;65.91;100260.98;105076;1267;102781;-78
2023/03/15 12:11:01;;;;;;;12.50;3.30;;;;;;;6.51;65.83;100263.14;105193;1262;99088;-83
2023/03/15 12:13:59;;;;;;;8.90;3.20;;;;;;;6.46;65.16;100260.34;105767;1263;99934;-79
2023/03/15 12:16:45;;;;;;;7.50;3.50;;;;;;;6.38;65.41;100261.63;105956;1262;98540;-84
2023/03/15 12:19:33;;;;;;;8.00;3.40;;;;;;;6.38;65.89;100264.11;105600;1267;98069;-85
2023/03/15 12:22:19;;;;;;;10.60;3.60;;;;;;;6.43;65.72;100275.77;105647;1265;101344;-84
2023/03/15 12:25:20;;;;;;;7.70;3.00;;;;;;;6.43;65.10;100276.28;105899;1267;99676;-81
2023/03/15 12:28:21;;;;;;;8.50;3.70;;;;;;;6.37;65.07;100284.94;106166;1262;98998;-85
2023/03/15 12:31:12;;;;;;;8.10;3.50;;;;;;;6.34;64.83;100291.45;105714;1268;98039;-85
2023/03/15 12:34:00;;;;;;;8.10;3.40;;;;;;;6.37;65.20;100294.88;105916;1262;97961;-84
2023/03/15 12:37:00;;;;;;;9.70;3.70;;;;;;;6.39;65.54;100299.30;105622;1262;102108;-85
2023/03/15 12:39:49;;;;;;;9.30;3.60;;;;;;;6.41;65.73;100297.56;105916;1262;99069;-84
2023/03/15 12:42:37;;;;;;;8.60;3.70;;;;;;;6.43;65.88;100299.36;106166;1262;98954;-86
2023/03/15 12:45:33;;;;;;;10.10;4.10;;;;;;;6.39;65.30;100300.27;106154;1265;97933;-85
2023/03/15 12:48:21;;;;;;;14.00;4.10;;;;;;;6.36;65.50;100302.63;105852;1262;97863;-85
2023/03/15 12:51:13;;;;;;;18.20;3.90;;;;;;;6.35;65.39;100305.32;106167;1267;103625;-86
2023/03/15 12:54:02;;;;;;;8.60;3.70;;;;;;;6.44;65.56;100310.52;106396;1266;99904;-86
2023/03/15 12:57:01;;;;;;;9.70;3.50;;;;;;;6.52;64.99;100304.85;106362;1267;99103;-89
2023/03/15 12:59:55;;;;;;;10.40;3.60;;;;;;;6.54;64.96;100309.16;106145;1262;97968;-81
2023/03/15 13:02:49;;;;;;;8.30;2.90;;;;;;;6.56;64.88;100311.52;105835;1267;98521;-86
2023/03/15 13:06:12;;;;;;;11.70;3.70;;;;;;;6.56;64.48;100322.77;105755;1262;102556;-87
2023/03/15 13:09:22;;;;;;;8.00;3.30;;;;;;;6.53;63.84;100329.65;106142;1262;99094;-88
2023/03/15 13:12:27;;;;;;;6.20;2.20;;;;;;;6.50;63.78;100338.66;105798;1262;98472;-84